Time;durP1;ratioP1;P1;durP2;ratioP2;P2;SDS_P1;SDS_P2;PMS_P1;PMS_P2;Temp;Humidity;BMP_temperature;BMP_pressure;BME280_temperature;BME280_humidity;BME280_pressure;Samples;Min_cycle;Max_cycle;Signal;HPM_P1;HPM_P2
2022/03/28 00:00:26;;;;;;;13.30;4.40;;;;;;;5.03;81.48;100277.85;104840;1272;73084;-69
2022/03/28 00:03:18;;;;;;;14.80;4.30;;;;;;;4.99;81.91;100278.25;105121;1271;66858;-70
2022/03/28 00:06:07;;;;;;;18.10;5.10;;;;;;;4.96;82.02;100271.19;104794;1271;70859;-69
2022/03/28 00:08:59;;;;;;;16.30;4.60;;;;;;;4.93;82.29;100267.79;104828;1271;59805;-70
2022/03/28 00:11:49;;;;;;;12.80;4.40;;;;;;;4.92;83.53;100263.81;105100;1271;59638;-70
2022/03/28 00:14:38;;;;;;;15.40;4.00;;;;;;;4.90;83.51;100264.77;104843;1271;73922;-70
2022/03/28 00:17:28;;;;;;;12.60;3.80;;;;;;;4.87;83.61;100258.24;104858;1272;66941;-69
2022/03/28 00:20:17;;;;;;;13.60;4.60;;;;;;;4.86;84.03;100255.88;104880;1271;72795;-70
2022/03/28 00:23:06;;;;;;;15.30;4.60;;;;;;;4.83;84.69;100256.20;104882;1271;59799;-69
2022/03/28 00:25:55;;;;;;;13.50;4.40;;;;;;;4.81;85.95;100248.21;105041;1271;60141;-70
2022/03/28 00:28:44;;;;;;;15.10;4.50;;;;;;;4.82;85.59;100247.98;104874;1271;73454;-69
2022/03/28 00:31:33;;;;;;;16.20;4.20;;;;;;;4.81;86.21;100231.67;105070;1271;68255;-69
2022/03/28 00:34:24;;;;;;;13.00;4.20;;;;;;;4.81;86.41;100233.27;104835;1271;71781;-69
2022/03/28 00:37:15;;;;;;;13.30;3.90;;;;;;;4.81;86.60;100225.00;105127;1271;59780;-70
2022/03/28 00:40:10;;;;;;;13.20;4.20;;;;;;;4.80;87.60;100226.82;104840;1271;60576;-70
2022/03/28 00:43:03;;;;;;;12.50;4.30;;;;;;;4.80;88.43;100218.73;104921;1271;73439;-70
2022/03/28 00:45:52;;;;;;;12.80;4.00;;;;;;;4.82;88.06;100219.17;104895;1271;66364;-70
2022/03/28 00:48:44;;;;;;;10.30;4.20;;;;;;;4.83;88.44;100213.48;104959;1273;72966;-69
2022/03/28 00:51:33;;;;;;;11.10;3.70;;;;;;;4.81;88.59;100202.66;105107;1271;59724;-69
2022/03/28 00:54:22;;;;;;;10.00;4.00;;;;;;;4.84;88.64;100200.24;105422;1271;59683;-69
2022/03/28 00:57:11;;;;;;;10.80;3.60;;;;;;;4.83;89.02;100196.77;104726;1272;72459;-69
2022/03/28 01:00:05;;;;;;;13.30;3.60;;;;;;;4.81;88.95;100192.65;104875;1273;67091;-70
2022/03/28 01:02:56;;;;;;;13.80;4.40;;;;;;;4.82;89.45;100190.15;104949;1271;70765;-69
2022/03/28 01:05:45;;;;;;;12.30;4.20;;;;;;;4.81;89.50;100182.97;104935;1272;59754;-70
2022/03/28 01:08:37;;;;;;;11.30;4.30;;;;;;;4.81;88.96;100175.60;104934;1271;61045;-69
2022/03/28 01:11:26;;;;;;;9.80;3.60;;;;;;;4.79;89.12;100171.31;104876;1271;72280;-70
2022/03/28 01:14:16;;;;;;;12.20;3.80;;;;;;;4.78;89.86;100164.84;104873;1271;68594;-70
2022/03/28 01:20:17;;;;;;;10.60;3.60;;;;;;;4.75;89.42;100160.08;103433;1271;1003178;-70
2022/03/28 01:23:07;;;;;;;9.30;3.50;;;;;;;4.71;89.92;100150.95;104829;1271;60733;-70
2022/03/28 01:25:57;;;;;;;16.00;5.00;;;;;;;4.70;90.38;100141.86;104816;1273;72317;-69
2022/03/28 01:28:45;;;;;;;9.00;2.90;;;;;;;4.68;90.66;100138.48;104857;1271;67223;-69
2022/03/28 01:31:41;;;;;;;14.30;4.80;;;;;;;4.65;90.95;100132.48;104927;1271;71722;-69
2022/03/28 01:34:32;;;;;;;10.60;3.80;;;;;;;4.63;90.79;100135.38;104904;1273;59662;-69
2022/03/28 01:37:23;;;;;;;20.10;6.90;;;;;;;4.60;91.24;100131.34;104867;1272;59680;-69
2022/03/28 01:40:12;;;;;;;10.30;4.40;;;;;;;4.57;91.06;100133.27;104888;1273;72675;-69
2022/03/28 01:43:02;;;;;;;12.40;4.90;;;;;;;4.54;90.80;100133.05;104888;1272;66834;-69
2022/03/28 01:45:51;;;;;;;14.70;5.50;;;;;;;4.50;91.60;100127.25;104789;1273;73161;-69
2022/03/28 01:48:46;;;;;;;12.80;4.10;;;;;;;4.47;91.67;100129.54;104179;1273;1003820;-69
2022/03/28 01:51:35;;;;;;;10.20;4.10;;;;;;;4.43;92.40;100130.61;104842;1272;59627;-69
2022/03/28 01:54:23;;;;;;;12.60;4.30;;;;;;;4.41;92.02;100128.09;105113;1273;73310;-69
2022/03/28 01:57:15;;;;;;;14.70;4.50;;;;;;;4.37;92.20;100121.59;104877;1272;66339;-69
2022/03/28 02:00:15;;;;;;;14.70;4.60;;;;;;;4.35;92.13;100121.35;104911;1272;71753;-69
2022/03/28 02:03:04;;;;;;;14.90;5.00;;;;;;;4.31;92.47;100112.27;105128;1273;59878;-69
2022/03/28 02:05:52;;;;;;;16.30;5.60;;;;;;;4.26;93.48;100115.47;104857;1272;59638;-69
2022/03/28 02:08:41;;;;;;;16.40;4.60;;;;;;;4.24;93.61;100108.55;104853;1271;73402;-69
2022/03/28 02:11:31;;;;;;;15.80;5.00;;;;;;;4.22;93.47;100107.96;104934;1271;67154;-69
2022/03/28 02:14:20;;;;;;;14.30;4.70;;;;;;;4.20;93.42;100105.77;104885;1271;73279;-69
2022/03/28 02:17:09;;;;;;;13.40;4.80;;;;;;;4.19;93.91;100111.10;105068;1272;59768;-69
2022/03/28 02:19:57;;;;;;;13.50;4.70;;;;;;;4.18;93.96;100105.88;104812;1271;60661;-69
2022/03/28 02:22:47;;;;;;;11.50;4.70;;;;;;;4.16;93.90;100099.14;105073;1272;73843;-69
2022/03/28 02:25:37;;;;;;;12.70;4.70;;;;;;;4.15;93.83;100102.35;105028;1272;68732;-69
2022/03/28 02:28:25;;;;;;;12.60;4.30;;;;;;;4.13;94.47;100101.91;105265;1271;73088;-69
2022/03/28 02:31:14;;;;;;;13.30;3.50;;;;;;;4.13;94.60;100104.77;104980;1272;59805;-69
2022/03/28 02:34:02;;;;;;;13.30;4.40;;;;;;;4.12;95.10;100099.49;104817;1271;59647;-69
2022/03/28 02:36:53;;;;;;;12.00;4.40;;;;;;;4.12;94.75;100090.20;104595;1273;73543;-69
2022/03/28 02:39:42;;;;;;;13.50;4.40;;;;;;;4.10;94.77;100088.70;104728;1273;67170;-70
2022/03/28 02:42:33;;;;;;;13.50;4.70;;;;;;;4.07;95.57;100087.09;104667;1273;71784;-70
2022/03/28 02:45:23;;;;;;;11.90;4.00;;;;;;;4.06;95.88;100083.27;104800;1273;59697;-70
2022/03/28 02:48:11;;;;;;;15.30;3.90;;;;;;;4.05;95.67;100080.36;105044;1273;59752;-70
2022/03/28 02:51:00;;;;;;;12.20;4.10;;;;;;;4.05;95.95;100071.61;105062;1273;73383;-69
2022/03/28 02:53:51;;;;;;;10.60;4.00;;;;;;;4.04;95.81;100063.72;105031;1273;68425;-69
2022/03/28 02:56:40;;;;;;;10.40;3.80;;;;;;;4.03;95.78;100066.05;104875;1273;71682;-69
2022/03/28 02:59:29;;;;;;;12.40;3.40;;;;;;;4.01;96.37;100065.45;104688;1273;59636;-69
2022/03/28 03:02:18;;;;;;;10.80;3.60;;;;;;;4.00;96.14;100062.89;104894;1273;59509;-69
2022/03/28 03:05:08;;;;;;;10.90;4.40;;;;;;;3.98;96.41;100061.92;104730;1273;71886;-69
2022/03/28 03:07:57;;;;;;;12.50;4.10;;;;;;;3.98;96.51;100060.88;104687;1273;66837;-69
2022/03/28 03:10:46;;;;;;;12.30;4.10;;;;;;;3.98;96.20;100058.27;104857;1271;71672;-70
2022/03/28 03:13:35;;;;;;;14.70;4.40;;;;;;;3.98;96.55;100054.05;104920;1271;59782;-70
2022/03/28 03:16:24;;;;;;;13.30;4.40;;;;;;;3.97;96.43;100048.83;104851;1271;59663;-70
2022/03/28 03:19:13;;;;;;;11.80;4.10;;;;;;;3.95;96.28;100049.65;104840;1273;71964;-70
2022/03/28 03:22:02;;;;;;;9.80;3.60;;;;;;;3.91;96.34;100044.70;104811;1272;66894;-70
2022/03/28 03:24:50;;;;;;;12.90;4.40;;;;;;;3.90;96.68;100041.25;104660;1273;72550;-70
2022/03/28 03:27:39;;;;;;;10.50;4.00;;;;;;;3.89;96.96;100043.75;104790;1273;59779;-69
2022/03/28 03:30:27;;;;;;;13.20;3.70;;;;;;;3.89;96.89;100042.35;104738;1272;61398;-69
2022/03/28 03:33:16;;;;;;;12.90;3.70;;;;;;;3.88;96.87;100041.16;104696;1273;73525;-69
2022/03/28 03:36:06;;;;;;;12.90;4.60;;;;;;;3.87;97.07;100037.38;104853;1274;68293;-69
2022/03/28 03:38:55;;;;;;;20.10;5.20;;;;;;;3.85;96.97;100029.39;104826;1272;71716;-69
2022/03/28 03:41:43;;;;;;;12.40;3.70;;;;;;;3.84;96.87;100027.91;104801;1272;59632;-69
2022/03/28 03:44:32;;;;;;;13.40;5.00;;;;;;;3.83;96.88;100032.48;104973;1273;60740;-69
2022/03/28 03:47:21;;;;;;;12.70;3.80;;;;;;;3.82;97.11;100031.99;104867;1272;72756;-69
2022/03/28 03:50:10;;;;;;;14.20;4.60;;;;;;;3.82;97.24;100032.20;101831;1271;1003873;-69
2022/03/28 03:52:59;;;;;;;10.90;3.70;;;;;;;3.80;97.00;100031.39;105020;1271;70782;-69
2022/03/28 03:55:48;;;;;;;11.20;4.40;;;;;;;3.78;97.12;100025.73;105020;1273;59607;-69
2022/03/28 03:58:37;;;;;;;11.30;4.70;;;;;;;3.74;97.10;100024.12;104832;1272;60183;-69
2022/03/28 04:01:26;;;;;;;14.80;4.80;;;;;;;3.74;97.34;100025.04;104878;1272;71119;-69
2022/03/28 04:04:18;;;;;;;12.80;4.10;;;;;;;3.73;97.51;100017.38;104905;1271;67798;-69
2022/03/28 04:07:06;;;;;;;13.20;4.90;;;;;;;3.72;97.44;100019.69;104857;1271;72076;-69
2022/03/28 04:10:02;;;;;;;11.90;4.40;;;;;;;3.71;97.57;100019.04;104867;1273;59675;-69
2022/03/28 04:12:53;;;;;;;13.30;4.90;;;;;;;3.70;97.75;100018.77;104962;1271;60814;-68
2022/03/28 04:15:42;;;;;;;15.20;4.70;;;;;;;3.67;97.84;100018.89;104874;1271;73362;-69
2022/03/28 04:18:36;;;;;;;19.10;5.40;;;;;;;3.64;98.22;100021.48;105114;1273;68258;-70
2022/03/28 04:21:25;;;;;;;15.10;5.50;;;;;;;3.63;98.29;100013.81;104887;1271;72969;-70
2022/03/28 04:24:14;;;;;;;13.60;5.20;;;;;;;3.63;98.35;100005.93;104951;1271;59601;-69
2022/03/28 04:27:03;;;;;;;13.20;4.80;;;;;;;3.63;98.24;99997.00;104800;1274;59761;-69
2022/03/28 04:29:52;;;;;;;12.10;4.50;;;;;;;3.64;98.84;99991.33;104866;1272;73569;-69
2022/03/28 04:32:42;;;;;;;12.90;4.10;;;;;;;3.65;98.65;99982.67;105012;1273;67061;-71
2022/03/28 04:35:32;;;;;;;11.40;4.40;;;;;;;3.66;98.95;99981.02;105625;1272;71606;-70
2022/03/28 04:38:21;;;;;;;11.20;4.00;;;;;;;3.68;98.77;99981.98;105069;1272;59720;-71
2022/03/28 04:41:11;;;;;;;12.90;4.10;;;;;;;3.71;98.71;99982.20;104868;1271;60993;-70
2022/03/28 04:44:00;;;;;;;17.90;6.00;;;;;;;3.73;98.51;99978.75;105029;1273;73385;-70
2022/03/28 04:46:48;;;;;;;13.30;4.20;;;;;;;3.78;98.27;99975.70;105033;1271;68130;-71
2022/03/28 04:49:37;;;;;;;12.40;3.80;;;;;;;3.82;97.81;99973.41;104954;1272;72008;-70
2022/03/28 04:52:26;;;;;;;11.50;3.50;;;;;;;3.85;97.27;99969.02;104948;1273;59675;-70
2022/03/28 04:55:15;;;;;;;10.30;3.50;;;;;;;3.89;96.91;99967.23;105355;1271;59656;-70
2022/03/28 04:58:06;;;;;;;11.20;3.90;;;;;;;3.93;96.46;99957.91;104870;1273;73420;-70
2022/03/28 05:00:54;;;;;;;11.70;3.40;;;;;;;3.97;95.87;99958.41;105142;1271;68203;-70
2022/03/28 05:03:43;;;;;;;10.80;4.00;;;;;;;4.03;95.40;99961.59;105317;1272;71625;-70
2022/03/28 05:06:32;;;;;;;10.40;4.40;;;;;;;4.09;94.94;99959.54;105092;1271;59722;-70
2022/03/28 05:09:20;;;;;;;10.90;3.80;;;;;;;4.15;94.40;99955.38;104902;1271;60664;-69
2022/03/28 05:12:09;;;;;;;12.70;4.10;;;;;;;4.20;94.07;99943.66;104921;1272;71245;-70
2022/03/28 05:14:58;;;;;;;10.50;2.90;;;;;;;4.24;93.45;99938.38;104910;1271;66489;-70
2022/03/28 05:17:46;;;;;;;10.60;3.70;;;;;;;4.27;92.98;99938.73;105077;1271;73151;-71
2022/03/28 05:20:35;;;;;;;9.90;3.50;;;;;;;4.32;92.64;99939.73;105027;1271;59643;-70
2022/03/28 05:23:23;;;;;;;10.10;3.50;;;;;;;4.36;92.11;99934.77;105054;1272;60668;-69
2022/03/28 05:26:12;;;;;;;12.30;3.90;;;;;;;4.40;91.74;99932.23;105335;1271;71114;-70
2022/03/28 05:29:03;;;;;;;9.70;3.40;;;;;;;4.46;91.28;99929.45;105239;1271;69460;-69
2022/03/28 05:31:52;;;;;;;12.10;4.30;;;;;;;4.51;91.09;99928.81;105099;1271;72414;-70
2022/03/28 05:34:42;;;;;;;10.60;3.50;;;;;;;4.58;90.48;99926.73;105214;1273;59772;-70
2022/03/28 05:37:40;;;;;;;13.10;4.10;;;;;;;4.64;89.87;99916.73;104899;1273;59709;-70
2022/03/28 05:40:29;;;;;;;12.70;4.30;;;;;;;4.74;89.16;99910.17;104984;1273;72203;-69
2022/03/28 05:43:18;;;;;;;13.70;3.60;;;;;;;4.82;88.76;99914.65;104918;1273;65997;-70
2022/03/28 05:46:11;;;;;;;12.50;4.30;;;;;;;4.90;88.13;99908.27;105107;1274;72517;-70
2022/03/28 05:49:00;;;;;;;10.40;3.60;;;;;;;4.96;87.70;99908.08;105171;1273;59749;-70
2022/03/28 05:51:49;;;;;;;9.70;3.80;;;;;;;5.07;87.10;99908.48;104882;1273;59514;-70
2022/03/28 05:54:41;;;;;;;10.20;3.50;;;;;;;5.17;86.59;99909.86;104914;1273;71930;-70
2022/03/28 05:57:29;;;;;;;11.30;3.70;;;;;;;5.25;85.97;99906.25;104936;1274;65968;-70
2022/03/28 06:00:20;;;;;;;11.40;4.00;;;;;;;5.34;85.46;99906.94;104878;1273;73267;-70
2022/03/28 06:03:09;;;;;;;12.80;3.70;;;;;;;5.43;85.03;99909.23;105079;1273;59644;-70
2022/03/28 06:06:18;;;;;;;10.80;3.60;;;;;;;5.50;84.26;99904.25;105313;1271;59548;-70
2022/03/28 06:09:10;;;;;;;10.20;3.90;;;;;;;5.56;83.90;99906.36;105092;1271;71834;-69
2022/03/28 06:11:59;;;;;;;10.40;3.90;;;;;;;5.64;83.84;99909.95;104920;1271;66327;-71
2022/03/28 06:14:47;;;;;;;8.50;3.60;;;;;;;5.73;83.28;99908.53;105082;1271;72038;-70
2022/03/28 06:17:36;;;;;;;10.90;4.40;;;;;;;5.80;82.49;99908.09;104935;1271;59664;-71
2022/03/28 06:20:27;;;;;;;8.70;3.70;;;;;;;5.88;82.06;99908.52;105153;1272;60620;-70
2022/03/28 06:23:16;;;;;;;9.80;3.80;;;;;;;5.97;81.71;99901.10;105091;1271;73548;-70
2022/03/28 06:26:05;;;;;;;8.90;3.40;;;;;;;6.11;81.34;99901.15;105055;1271;67366;-70
2022/03/28 06:28:57;;;;;;;9.40;3.90;;;;;;;6.21;80.34;99891.02;105322;1271;73474;-71
2022/03/28 06:31:48;;;;;;;9.20;3.70;;;;;;;6.37;80.10;99889.85;104949;1272;59707;-71
2022/03/28 06:34:36;;;;;;;11.40;3.80;;;;;;;6.70;78.71;99884.25;105149;1271;59530;-71
2022/03/28 06:37:25;;;;;;;11.40;4.70;;;;;;;7.83;74.39;99876.52;105001;1271;73629;-71
2022/03/28 06:40:14;;;;;;;11.60;5.50;;;;;;;9.59;67.28;99865.79;105261;1271;67830;-71
2022/03/28 06:43:04;;;;;;;11.40;4.50;;;;;;;11.23;61.74;99861.38;105039;1271;71640;-71
2022/03/28 06:45:53;;;;;;;10.80;4.80;;;;;;;12.43;56.80;99855.41;105158;1271;59657;-72
2022/03/28 06:48:42;;;;;;;13.90;4.50;;;;;;;13.61;52.25;99855.46;104953;1271;59593;-72
2022/03/28 06:51:32;;;;;;;10.20;4.20;;;;;;;14.54;49.31;99849.25;104983;1271;72232;-71
2022/03/28 06:54:22;;;;;;;11.20;4.00;;;;;;;15.30;46.50;99837.88;105212;1271;67049;-72
2022/03/28 06:57:12;;;;;;;9.40;4.00;;;;;;;15.78;44.67;99833.24;105012;1271;73391;-72
2022/03/28 07:00:02;;;;;;;13.90;4.10;;;;;;;16.26;42.55;99829.17;104905;1272;59733;-72
2022/03/28 07:02:51;;;;;;;11.20;3.60;;;;;;;16.88;40.97;99817.21;104976;1271;60475;-72
2022/03/28 07:05:40;;;;;;;9.80;3.50;;;;;;;17.54;39.44;99819.20;105256;1273;73795;-72
2022/03/28 07:08:29;;;;;;;9.80;3.50;;;;;;;18.22;37.54;99802.31;104859;1271;66647;-72
2022/03/28 07:11:20;;;;;;;8.50;2.70;;;;;;;18.52;36.41;99815.34;105113;1271;73168;-74
2022/03/28 07:14:32;;;;;;;8.40;2.70;;;;;;;19.03;35.66;99808.73;105194;1271;59732;-73
2022/03/28 07:17:21;;;;;;;8.90;3.00;;;;;;;19.40;34.39;99805.61;105077;1271;59743;-72
2022/03/28 07:20:11;;;;;;;8.50;3.20;;;;;;;19.65;34.09;99804.83;105210;1271;72247;-72
2022/03/28 07:23:01;;;;;;;8.10;2.90;;;;;;;19.86;33.62;99792.56;105011;1272;67027;-73
2022/03/28 07:25:50;;;;;;;7.40;2.20;;;;;;;19.92;33.11;99788.67;104978;1271;73342;-73
2022/03/28 07:28:39;;;;;;;8.90;2.90;;;;;;;19.87;32.94;99783.09;105014;1273;59829;-73
2022/03/28 07:31:29;;;;;;;8.80;2.70;;;;;;;20.08;32.42;99780.36;105110;1271;59843;-74
2022/03/28 07:34:29;;;;;;;9.30;3.00;;;;;;;20.11;32.58;99771.25;105064;1271;71102;-73
2022/03/28 07:37:17;;;;;;;11.20;2.70;;;;;;;20.04;32.47;99779.31;104969;1274;67948;-72
2022/03/28 07:40:08;;;;;;;8.60;2.80;;;;;;;19.98;32.25;99784.70;105002;1273;73180;-73
2022/03/28 07:42:56;;;;;;;8.40;2.50;;;;;;;20.05;32.34;99773.45;105124;1271;59691;-73
2022/03/28 07:45:45;;;;;;;12.20;3.00;;;;;;;20.33;31.61;99772.27;105029;1274;59625;-72
2022/03/28 07:48:33;;;;;;;8.60;3.10;;;;;;;20.98;31.06;99767.54;105048;1272;72118;-73
2022/03/28 07:51:21;;;;;;;10.70;3.10;;;;;;;21.09;30.56;99759.27;104921;1271;66457;-73
2022/03/28 07:54:12;;;;;;;9.70;3.60;;;;;;;21.31;30.29;99763.60;105349;1271;73143;-72
2022/03/28 07:57:00;;;;;;;9.30;3.50;;;;;;;21.36;30.00;99759.31;105070;1271;59751;-72
2022/03/28 07:59:50;;;;;;;10.70;3.10;;;;;;;21.38;29.72;99748.46;105007;1271;59650;-72
2022/03/28 08:03:01;;;;;;;8.90;3.20;;;;;;;21.45;29.65;99747.27;105054;1271;72852;-73
2022/03/28 08:05:50;;;;;;;13.70;3.40;;;;;;;21.57;29.46;99744.02;105049;1271;68208;-73
2022/03/28 08:08:39;;;;;;;10.30;3.50;;;;;;;21.49;29.70;99743.38;105020;1271;72070;-73
2022/03/28 08:11:30;;;;;;;10.90;3.50;;;;;;;21.69;29.35;99740.94;105105;1271;60025;-72
2022/03/28 08:14:19;;;;;;;12.90;3.40;;;;;;;21.84;29.22;99744.51;105228;1271;60262;-73
2022/03/28 08:17:08;;;;;;;11.30;3.20;;;;;;;21.87;29.01;99745.77;104996;1272;73362;-72
2022/03/28 08:19:57;;;;;;;10.80;2.70;;;;;;;21.58;29.06;99743.61;105372;1271;68216;-73
2022/03/28 08:22:50;;;;;;;7.70;2.60;;;;;;;21.95;28.90;99746.14;105151;1270;72921;-72
2022/03/28 08:25:39;;;;;;;11.20;2.90;;;;;;;22.24;28.48;99745.39;105473;1271;59849;-73
2022/03/28 08:28:31;;;;;;;9.10;2.80;;;;;;;22.50;27.95;99743.98;105166;1271;59800;-72
2022/03/28 08:31:50;;;;;;;10.70;2.80;;;;;;;22.06;28.04;99743.41;105203;1271;73567;-72
2022/03/28 08:34:38;;;;;;;10.70;2.80;;;;;;;21.59;28.70;99748.04;105080;1271;67238;-73
2022/03/28 08:37:28;;;;;;;12.20;3.00;;;;;;;21.17;29.24;99747.17;105036;1271;71935;-72
2022/03/28 08:40:48;;;;;;;12.40;2.90;;;;;;;20.88;29.89;99750.22;105188;1271;59685;-72
2022/03/28 08:43:41;;;;;;;12.10;2.80;;;;;;;21.14;29.94;99740.63;105221;1271;60572;-72
2022/03/28 08:46:31;;;;;;;13.60;3.10;;;;;;;21.28;29.69;99742.65;105086;1271;73777;-73
2022/03/28 08:49:20;;;;;;;13.50;3.40;;;;;;;21.32;29.87;99743.17;104951;1271;68126;-72
2022/03/28 08:52:10;;;;;;;14.80;3.00;;;;;;;21.53;29.74;99737.11;105218;1271;73030;-72
2022/03/28 08:54:59;;;;;;;12.20;2.90;;;;;;;22.01;29.19;99737.34;105056;1271;59867;-72
2022/03/28 08:57:51;;;;;;;11.90;3.20;;;;;;;22.25;28.47;99749.56;105000;1271;60967;-72
2022/03/28 09:00:42;;;;;;;15.50;3.80;;;;;;;22.16;28.19;99737.31;105152;1271;72516;-73
2022/03/28 09:03:39;;;;;;;11.50;3.10;;;;;;;21.79;28.41;99740.98;104849;1271;416548;-72
2022/03/28 09:06:43;;;;;;;11.00;2.90;;;;;;;21.71;28.76;99735.94;105283;1271;71671;-72
2022/03/28 09:09:40;;;;;;;12.00;2.60;;;;;;;21.70;28.92;99732.91;105006;1271;59731;-71
2022/03/28 09:12:29;;;;;;;10.50;2.60;;;;;;;21.48;28.84;99735.73;105046;1271;60024;-72
2022/03/28 09:15:46;;;;;;;9.70;2.90;;;;;;;21.23;29.34;99731.00;105030;1271;73506;-72
2022/03/28 09:18:35;;;;;;;12.30;2.80;;;;;;;21.49;29.38;99733.42;105226;1272;67368;-72
2022/03/28 09:21:27;;;;;;;12.10;3.30;;;;;;;21.76;29.15;99734.77;104998;1271;70748;-72
2022/03/28 09:24:16;;;;;;;13.60;2.90;;;;;;;21.64;29.01;99727.16;105258;1272;59959;-71
2022/03/28 09:27:13;;;;;;;13.80;3.10;;;;;;;21.30;29.35;99725.12;105408;1271;59569;-72
2022/03/28 09:30:05;;;;;;;12.50;2.90;;;;;;;21.17;29.55;99722.96;105175;1272;73587;-72
2022/03/28 09:32:55;;;;;;;15.90;3.10;;;;;;;21.35;29.50;99714.60;105297;1271;67840;-72
2022/03/28 09:35:47;;;;;;;17.10;2.90;;;;;;;21.38;29.33;99715.70;105018;1271;73046;-71
2022/03/28 09:38:35;;;;;;;12.00;2.70;;;;;;;21.21;29.41;99713.88;104987;1271;59839;-71
2022/03/28 09:41:24;;;;;;;10.80;3.10;;;;;;;21.09;29.73;99717.07;105002;1271;60653;-72
2022/03/28 09:44:13;;;;;;;14.00;2.50;;;;;;;21.50;29.34;99715.95;105152;1274;73141;-72
2022/03/28 09:47:07;;;;;;;9.70;2.90;;;;;;;21.79;28.82;99714.99;104932;1271;68193;-72
2022/03/28 09:49:57;;;;;;;12.50;3.00;;;;;;;22.14;28.55;99703.00;105388;1271;71993;-72
2022/03/28 09:52:47;;;;;;;11.10;3.00;;;;;;;22.51;28.09;99702.48;105249;1271;59745;-73
2022/03/28 09:55:47;;;;;;;11.80;2.60;;;;;;;22.72;27.51;99700.83;105026;1271;60743;-73
2022/03/28 09:59:01;;;;;;;10.80;3.10;;;;;;;22.20;27.94;99702.20;105054;1271;74129;-73
2022/03/28 10:01:49;;;;;;;11.80;2.70;;;;;;;22.12;28.05;99693.64;105267;1271;68064;-73
2022/03/28 10:04:49;;;;;;;9.30;2.70;;;;;;;22.40;27.78;99683.80;105328;1271;72696;-72
2022/03/28 10:07:40;;;;;;;9.40;2.70;;;;;;;22.44;27.76;99681.65;104984;1271;59634;-72
2022/03/28 10:10:29;;;;;;;10.20;2.70;;;;;;;22.36;27.68;99684.17;104949;1271;59617;-73
2022/03/28 10:13:20;;;;;;;11.80;2.90;;;;;;;22.48;27.76;99684.75;104994;1271;73199;-73
2022/03/28 10:16:09;;;;;;;12.70;2.50;;;;;;;22.73;27.29;99682.80;104947;1274;68222;-73
2022/03/28 10:18:58;;;;;;;13.10;2.80;;;;;;;22.90;26.84;99679.47;104928;1274;73101;-73
2022/03/28 10:21:47;;;;;;;14.30;2.70;;;;;;;23.19;26.33;99687.53;105249;1271;59867;-72
2022/03/28 10:24:36;;;;;;;7.90;2.70;;;;;;;23.28;26.28;99675.89;105004;1271;59609;-74
2022/03/28 10:27:26;;;;;;;11.30;2.90;;;;;;;23.28;26.29;99670.67;105323;1271;73551;-73
2022/03/28 10:30:27;;;;;;;13.40;2.70;;;;;;;22.85;26.73;99676.50;105092;1271;68575;-73
2022/03/28 10:33:22;;;;;;;9.40;2.90;;;;;;;22.97;26.69;99669.66;105265;1271;73505;-72
2022/03/28 10:36:30;;;;;;;11.80;2.90;;;;;;;22.99;26.66;99669.07;105166;1271;59579;-73
2022/03/28 10:39:37;;;;;;;13.00;3.20;;;;;;;22.85;27.06;99663.60;105171;1271;60586;-73
2022/03/28 10:42:27;;;;;;;14.50;3.10;;;;;;;22.34;27.59;99668.32;104988;1271;71893;-72
2022/03/28 10:45:19;;;;;;;12.00;3.00;;;;;;;21.90;27.78;99670.86;104999;1271;68584;-72
2022/03/28 10:48:14;;;;;;;10.10;2.80;;;;;;;21.99;27.56;99661.69;105013;1271;73279;-73
2022/03/28 10:51:07;;;;;;;14.00;3.40;;;;;;;22.12;27.51;99662.52;105028;1271;59882;-72
2022/03/28 10:54:00;;;;;;;9.00;3.30;;;;;;;21.78;27.97;99647.19;105224;1271;59677;-73
2022/03/28 10:56:57;;;;;;;9.80;3.10;;;;;;;21.50;28.45;99639.77;104971;1272;73278;-73
2022/03/28 11:00:08;;;;;;;14.80;4.20;;;;;;;21.54;28.82;99634.30;105150;1271;68619;-73
2022/03/28 11:03:06;;;;;;;15.20;4.10;;;;;;;21.03;29.30;99632.30;105093;1271;72831;-74
2022/03/28 11:05:55;;;;;;;10.00;3.40;;;;;;;20.56;29.94;99631.46;105154;1271;59746;-73
2022/03/28 11:08:57;;;;;;;13.20;4.30;;;;;;;19.76;30.59;99630.02;104966;1271;59701;-72
2022/03/28 11:12:09;;;;;;;20.00;4.60;;;;;;;19.12;31.30;99647.48;105081;1271;72415;-73
2022/03/28 11:15:19;;;;;;;14.80;3.80;;;;;;;19.05;31.71;99634.48;105330;1271;67104;-72
2022/03/28 11:18:11;;;;;;;16.80;4.10;;;;;;;18.99;31.96;99639.20;104996;1271;72643;-71
2022/03/28 11:21:11;;;;;;;11.50;3.70;;;;;;;18.75;32.34;99631.39;105102;1271;59773;-72
2022/03/28 11:24:10;;;;;;;16.00;4.40;;;;;;;18.53;32.70;99635.05;105057;1271;60704;-72
2022/03/28 11:27:03;;;;;;;10.50;3.70;;;;;;;18.55;32.50;99621.60;105350;1271;73493;-72
2022/03/28 11:30:05;;;;;;;14.80;4.40;;;;;;;18.42;32.48;99620.66;105100;1274;68113;-71
2022/03/28 11:32:58;;;;;;;11.50;3.60;;;;;;;18.30;33.00;99612.41;105113;1271;71800;-72
2022/03/28 11:36:03;;;;;;;12.10;4.40;;;;;;;17.97;33.49;99606.92;104856;1273;59759;-72
2022/03/28 11:38:55;;;;;;;11.20;4.10;;;;;;;17.80;33.93;99598.13;105296;1271;60592;-72
2022/03/28 11:41:50;;;;;;;13.90;4.20;;;;;;;17.31;34.86;99599.55;104957;1271;73321;-72
2022/03/28 11:44:38;;;;;;;12.10;4.70;;;;;;;17.13;35.29;99597.05;105251;1270;66774;-72
2022/03/28 11:47:30;;;;;;;14.30;5.40;;;;;;;17.07;35.37;99600.48;105283;1271;72201;-72
2022/03/28 11:50:19;;;;;;;18.40;4.80;;;;;;;17.22;35.11;99600.36;105409;1271;59598;-71
2022/03/28 11:53:16;;;;;;;12.50;4.70;;;;;;;17.16;35.20;99602.14;105320;1271;59498;-71
2022/03/28 11:56:05;;;;;;;11.60;4.50;;;;;;;17.12;35.14;99602.42;105310;1271;73516;-71
2022/03/28 11:59:12;;;;;;;20.60;4.80;;;;;;;16.82;35.66;99597.27;105018;1272;68206;-72
2022/03/28 12:02:06;;;;;;;13.90;4.10;;;;;;;16.30;36.60;99589.77;105059;1271;72687;-72
2022/03/28 12:04:58;;;;;;;13.60;4.90;;;;;;;15.96;37.13;99592.73;105172;1271;59631;-71
2022/03/28 12:07:47;;;;;;;10.10;4.60;;;;;;;15.78;37.85;99587.67;105033;1271;59644;-71
2022/03/28 12:10:51;;;;;;;12.60;5.40;;;;;;;15.61;37.99;99593.73;105161;1273;71895;-72
2022/03/28 12:13:40;;;;;;;13.40;5.20;;;;;;;15.47;38.21;99590.36;105331;1271;68120;-71
2022/03/28 12:16:29;;;;;;;14.50;5.00;;;;;;;15.27;38.98;99576.73;105037;1271;72190;-71
2022/03/28 12:19:29;;;;;;;12.50;5.30;;;;;;;14.84;39.88;99578.70;105426;1271;59666;-72
2022/03/28 12:22:25;;;;;;;21.20;5.40;;;;;;;14.45;40.69;99581.02;105353;1270;59724;-72
2022/03/28 12:25:45;;;;;;;12.50;5.00;;;;;;;14.03;42.28;99578.60;104985;1273;72391;-71
2022/03/28 12:28:45;;;;;;;16.30;5.20;;;;;;;13.62;43.25;99574.13;105430;1271;68122;-71
2022/03/28 12:31:34;;;;;;;16.10;5.60;;;;;;;13.25;43.91;99571.59;105375;1271;72751;-71
2022/03/28 12:34:23;;;;;;;12.10;4.90;;;;;;;12.78;44.55;99569.30;105100;1273;59775;-71
2022/03/28 12:37:16;;;;;;;18.10;5.70;;;;;;;12.11;46.48;99575.34;105116;1271;61207;-71
2022/03/28 12:40:06;;;;;;;20.00;6.10;;;;;;;11.65;47.86;99569.69;105105;1271;71795;-71
2022/03/28 12:43:01;;;;;;;16.80;5.50;;;;;;;11.33;49.15;99560.64;105064;1271;65846;-70
2022/03/28 12:45:55;;;;;;;16.00;4.80;;;;;;;10.90;50.56;99562.95;105537;1271;72978;-70
2022/03/28 12:48:53;;;;;;;13.90;4.80;;;;;;;10.61;52.08;99552.16;104981;1271;59744;-71
2022/03/28 12:51:43;;;;;;;17.40;5.10;;;;;;;10.53;52.34;99550.52;105052;1271;59710;-71
2022/03/28 12:54:32;;;;;;;13.80;5.30;;;;;;;10.40;52.38;99540.80;105171;1271;72191;-71
2022/03/28 12:57:30;;;;;;;16.70;5.90;;;;;;;10.38;53.16;99542.89;105150;1272;65646;-71
2022/03/28 13:00:31;;;;;;;11.60;5.50;;;;;;;10.33;53.87;99544.92;105188;1271;72740;-71
2022/03/28 13:03:31;;;;;;;16.30;5.40;;;;;;;10.29;53.65;99542.21;105365;1271;59698;-72
2022/03/28 13:06:21;;;;;;;17.10;5.40;;;;;;;10.11;54.09;99532.05;105022;1271;60608;-70
2022/03/28 13:09:18;;;;;;;18.30;6.90;;;;;;;9.78;55.29;99525.56;105049;1271;71352;-70
2022/03/28 13:12:09;;;;;;;14.50;5.00;;;;;;;9.66;55.88;99523.23;104927;1271;66649;-70
2022/03/28 13:15:07;;;;;;;14.00;5.80;;;;;;;9.55;56.53;99516.11;105051;1271;70747;-70